• Join FlightAware (Why Join?)
  • Login
  • US Flag 
08:57PM EDT


 

Airport Tracker/Info


-or-


 

Live Flight TrackerFlight Track Log ✈ GJS6221 ✈ 05-Jun-2014 ✈ KLGA - KORF

Flight Track Log - Related Links

Times and Time Zones

All times are in EDT time to prevent confusion due to time zone crossing. See the GJS6221 flight status page for this flight to view local times or setup timezone preferences in your user account.

Time Position Orientation Groundspeed Altitude Reporting Facility
EDT Latitude Longitude Course Direction KTS MPH feet Rate Location/Type
10:10AM 40.7500 -73.8333 90° East 159 183 1,600  Level New York TRACON
10:11AM 40.7500 -73.7833 90° East 204 235 3,200 2,280 Climbing New York TRACON
10:12AM 40.8000 -73.8333 323° Northwest 258 297 6,200 2,640 Climbing New York TRACON
10:13AM 40.8000 -73.9167 270° West 262 302 8,800 2,640 Climbing New York TRACON
10:14AM 40.7500 -74.0000 232° Southwest 279 321 11,500 1,620 Climbing New York TRACON
10:15AM 40.6667 -74.0500 204° Southwest 338 389 12,100 900 Climbing New York TRACON
10:16AM 40.5667 -74.0833 194° South 374 430 13,300 1,680 Climbing New York TRACON
10:18AM 40.3803 -74.1386 193° South 377 434 17,000 1,860 Climbing New York Center
10:19AM 40.2983 -74.1644 194° South 377 434 18,800 1,860 Climbing New York Center
10:20AM 40.2019 -74.2467 213° Southwest 368 423 20,800 1,860 Climbing New York Center
10:21AM 40.1008 -74.3439 216° Southwest 376 433 22,700 1,500 Climbing Washington Center
10:22AM 40.0119 -74.4267 216° Southwest 381 438 24,000 1,020 Climbing Washington Center
10:23AM 39.9253 -74.5119 217° Southwest 387 445 24,800 960 Climbing Washington Center
10:24AM 39.8344 -74.6000 217° Southwest 395 455 25,900 540 Climbing Washington Center
10:25AM 39.7433 -74.6875 216° Southwest 406 467 26,000  Climbing Washington Center
10:26AM 39.6628 -74.7694 218° Southwest 406 467 26,000  Level Washington Center
10:27AM 39.5717 -74.8539 216° Southwest 406 467 26,000  Level Washington Center
10:28AM 39.4806 -74.9408 216° Southwest 412 474 26,000  Level Washington Center
10:29AM 39.3828 -75.0142 210° Southwest 412 474 26,000  Level Washington Center
10:30AM 39.2728 -75.0689 201° Southwest 412 474 26,000  Level Washington Center
10:31AM 39.1625 -75.1206 200° South 418 481 26,000  Level Washington Center
10:32AM 39.0500 -75.1747 201° Southwest 428 493 26,000 -360 Level Washington Center
10:33AM 38.9397 -75.2286 201° Southwest 433 498 25,400 -1,140 Descending Washington Center
10:34AM 38.8294 -75.2800 200° South 433 498 23,800 -1,620 Descending Washington Center
10:35AM 38.7192 -75.3361 202° Southwest 428 493 22,200 -1,560 Descending Washington Center
10:36AM 38.6150 -75.3844 200° South 423 487 20,800 -1,140 Descending Washington Center
10:37AM 38.5108 -75.4325 200° South 411 473 20,000 -420 Descending Washington Center
10:38AM 38.4044 -75.4831 200° South 406 467 20,000  Level Washington Center
10:39AM 38.2983 -75.5389 202° Southwest 412 474 20,000 3,000 Level Washington Center
10:40AM 38.1919 -75.5944 202° Southwest 418 481 26,000 -60 Climbing Washington Center
10:41AM 38.0958 -75.6631 209° Southwest 413 475 19,900 -4,020 Descending Washington Center
10:42AM 37.9875 -75.7339 207° Southwest 403 464 17,900 -1,800 Descending Washington Center
10:43AM 37.8936 -75.7917 206° Southwest 395 455 16,400 -1,440 Descending Washington Center
10:44AM 37.8039 -75.8414 204° Southwest 390 449 15,100 -1,500 Descending Washington Center
10:44AM 37.7389 -75.8858 208° Southwest 356 410 13,900 -1,920 Descending Washington Center
10:45AM 37.7097 -75.9067 209° Southwest 377 434 13,200 -1,800 Descending Washington Center
10:46AM 37.6261 -75.9536 204° Southwest 352 405 11,500 -1,680 Descending Washington Center
10:47AM 37.5675 -76.0083 217° Southwest 314 361 10,300 -1,620 Descending Washington Center
10:47AM 37.5572 -76.0242 231° Southwest 334 384 9,900 -300 Descending Washington Center
10:48AM 37.4964 -76.0656 208° Southwest 288 331 10,000 -900 Climbing Washington Center
10:49AM 37.4108 -76.0886 192° South 269 310 8,200 -1,740 Descending Washington Center
10:50AM 37.3358 -76.0881 180° South 272 313 6,400 -1,740 Descending Washington Center
10:51AM 37.2650 -76.0617 163° South 281 323 4,900 -1,200 Descending Washington Center
10:52AM 37.1900 -76.0558 176° South 270 311 4,000 -480 Descending Washington Center
10:53AM 37.1272 -76.0581 182° South 230 265 4,000  Level Washington Center
10:54AM 37.0689 -76.0606 182° South 225 259 4,000 -420 Level Washington Center
10:55AM 37.0167 -76.0808 197° South 186 214 3,300 -1,080 Descending Washington Center
10:56AM 36.9853 -76.1172 223° Southwest 155 178 2,000 -1,020 Descending Washington Center
10:57AM 36.9539 -76.1428 213° Southwest 121 139 1,300 -720 Descending Washington Center
10:58AM 36.9244 -76.1714 218° Southwest 129 148 600 -720 Descending Washington Center